Time;durP1;ratioP1;P1;durP2;ratioP2;P2;SDS_P1;SDS_P2;PMS_P1;PMS_P2;Temp;Humidity;BMP_temperature;BMP_pressure;BME280_temperature;BME280_humidity;BME280_pressure;Samples;Min_cycle;Max_cycle;Signal;HPM_P1;HPM_P2
2024/04/02 00:03:36;;;;;;;2.55;2.35;;;;;;;8.13;100.00;100065.13;10441419;28;20036;-74
2024/04/02 00:08:41;;;;;;;2.95;2.28;;;;;;;8.14;100.00;100072.19;10459188;28;20099;-74
2024/04/02 00:13:41;;;;;;;7.20;3.00;;;;;;;8.09;100.00;100063.88;10459062;28;20040;-74
2024/04/02 00:18:41;;;;;;;3.20;2.50;;;;;;;8.11;100.00;100071.78;10458676;28;20484;-74
2024/04/02 00:23:42;;;;;;;2.97;1.90;;;;;;;8.08;100.00;100070.31;10442818;28;20491;-74
2024/04/02 00:28:42;;;;;;;2.10;2.00;;;;;;;8.02;100.00;100071.13;10458490;28;20422;-74
2024/04/02 00:33:43;;;;;;;3.28;2.55;;;;;;;7.95;100.00;100072.97;10456294;28;20082;-74
2024/04/02 00:38:43;;;;;;;6.00;2.28;;;;;;;7.97;100.00;100081.66;10440675;28;20047;-74
2024/04/02 00:43:43;;;;;;;2.42;2.08;;;;;;;7.89;100.00;100081.84;10457267;28;20345;-73
2024/04/02 00:48:44;;;;;;;6.18;2.28;;;;;;;7.85;100.00;100088.69;10458175;28;20051;-74
2024/04/02 00:53:44;;;;;;;3.58;3.20;;;;;;;7.85;100.00;100097.59;10456218;28;20036;-74
2024/04/02 00:58:45;;;;;;;1.80;1.70;;;;;;;7.87;100.00;100103.59;10457688;28;20445;-74
2024/04/02 01:03:45;;;;;;;2.38;2.17;;;;;;;7.79;100.00;100097.56;10456368;28;20025;-74
2024/04/02 01:08:46;;;;;;;2.25;2.10;;;;;;;7.78;100.00;100095.88;10455584;28;20029;-73
2024/04/02 01:13:47;;;;;;;1.92;1.80;;;;;;;7.68;100.00;100094.38;10456148;28;20040;-74
2024/04/02 01:18:47;;;;;;;2.17;2.08;;;;;;;7.68;100.00;100107.84;10455094;28;20047;-74
2024/04/02 01:23:47;;;;;;;3.83;2.30;;;;;;;7.74;100.00;100111.59;10438772;28;20029;-74
2024/04/02 01:28:53;;;;;;;3.78;2.42;;;;;;;7.70;100.00;100118.44;10438667;28;20076;-74
2024/04/02 01:33:53;;;;;;;2.33;2.13;;;;;;;7.63;100.00;100123.78;10439692;28;20029;-74
2024/04/02 01:38:54;;;;;;;2.70;2.50;;;;;;;7.58;100.00;100120.00;10456278;28;20047;-74
2024/04/02 01:43:54;;;;;;;2.00;1.80;;;;;;;7.59;100.00;100118.97;10456451;28;20024;-74
2024/04/02 01:48:55;;;;;;;2.60;2.40;;;;;;;7.66;100.00;100125.25;10456840;28;20029;-74
2024/04/02 01:53:56;;;;;;;3.75;2.67;;;;;;;7.58;100.00;100126.22;10458030;28;20114;-74
2024/04/02 01:58:56;;;;;;;2.72;2.53;;;;;;;7.52;100.00;100116.22;10484044;28;20392;-74
2024/04/02 02:03:56;;;;;;;3.53;2.25;;;;;;;7.49;100.00;100116.63;10467973;28;20073;-74
2024/04/02 02:08:57;;;;;;;3.30;3.00;;;;;;;7.44;100.00;100129.88;10464445;28;20033;-74
2024/04/02 02:13:59;;;;;;;5.90;2.97;;;;;;;7.51;100.00;100119.97;10464196;28;20032;-74
2024/04/02 02:18:59;;;;;;;6.22;2.53;;;;;;;7.46;100.00;100131.31;10464405;28;20045;-74
2024/04/02 02:23:59;;;;;;;2.40;2.20;;;;;;;7.47;100.00;100140.25;10447851;28;20087;-73
2024/04/02 02:29:00;;;;;;;2.42;2.22;;;;;;;7.49;100.00;100132.78;10462014;28;20045;-73
2024/04/02 02:34:02;;;;;;;3.30;3.00;;;;;;;7.41;100.00;100130.25;10466023;28;20055;-74
2024/04/02 02:39:04;;;;;;;10.75;2.83;;;;;;;7.46;100.00;100127.78;10464748;28;20349;-73
2024/04/02 02:44:04;;;;;;;4.43;2.13;;;;;;;7.50;100.00;100131.78;10461252;28;20060;-74
2024/04/02 02:49:05;;;;;;;3.30;2.25;;;;;;;7.45;100.00;100131.53;10463015;28;20025;-73
2024/04/02 02:54:05;;;;;;;4.65;2.78;;;;;;;7.49;100.00;100134.66;10461601;28;20087;-74
2024/04/02 02:59:05;;;;;;;3.30;2.45;;;;;;;7.48;100.00;100149.16;10461834;28;20037;-74
2024/04/02 03:04:06;;;;;;;2.17;2.08;;;;;;;7.50;100.00;100152.47;10461162;28;20487;-74
2024/04/02 03:09:06;;;;;;;3.00;2.70;;;;;;;7.47;100.00;100156.41;10460718;28;20056;-74
2024/04/02 03:14:07;;;;;;;5.28;2.83;;;;;;;7.44;100.00;100164.88;10461477;28;20028;-74
2024/04/02 03:19:07;;;;;;;9.75;3.92;;;;;;;7.41;100.00;100157.19;10459769;28;20150;-74
2024/04/02 03:24:07;;;;;;;3.03;2.83;;;;;;;7.42;100.00;100164.25;10460313;28;20322;-74
2024/04/02 03:29:08;;;;;;;4.32;3.28;;;;;;;7.44;100.00;100165.72;10461543;28;20086;-73
2024/04/02 03:34:08;;;;;;;3.95;3.05;;;;;;;7.45;100.00;100174.63;10460010;28;20036;-73
2024/04/02 03:39:08;;;;;;;6.38;2.67;;;;;;;7.36;100.00;100175.78;10442678;28;20048;-74
2024/04/02 03:44:09;;;;;;;5.70;2.70;;;;;;;7.35;100.00;100182.22;10442959;28;20096;-73
2024/04/02 03:49:10;;;;;;;5.90;4.03;;;;;;;7.60;100.00;100188.03;10460711;28;20029;-74
2024/04/02 03:54:10;;;;;;;5.47;2.97;;;;;;;7.46;100.00;100193.28;10458987;28;20364;-73
2024/04/02 03:59:10;;;;;;;3.83;3.10;;;;;;;7.44;100.00;100191.81;10459394;28;20039;-74
2024/04/02 04:04:11;;;;;;;3.97;2.25;;;;;;;7.62;100.00;100202.09;10460266;28;20052;-73
2024/04/02 04:09:11;;;;;;;3.10;2.80;;;;;;;7.88;100.00;100207.72;10457983;28;20036;-73
2024/04/02 04:14:12;;;;;;;5.72;3.05;;;;;;;7.92;100.00;100213.53;10458456;28;20056;-73
2024/04/02 04:19:12;;;;;;;5.35;3.15;;;;;;;7.76;100.00;100203.06;10440508;28;20144;-74
2024/04/02 04:24:12;;;;;;;9.95;2.90;;;;;;;7.68;100.00;100210.25;10459171;28;20139;-73
2024/04/02 04:29:13;;;;;;;3.42;2.65;;;;;;;7.80;100.00;100215.09;10457057;28;20484;-74
2024/04/02 04:34:13;;;;;;;11.30;3.13;;;;;;;7.73;100.00;100230.41;10458137;28;20063;-73
2024/04/02 04:39:14;;;;;;;3.17;2.33;;;;;;;7.69;100.00;100219.19;10458033;28;20509;-73
2024/04/02 04:44:14;;;;;;;5.85;2.30;;;;;;;7.59;100.00;100222.19;10457701;28;20041;-72
2024/04/02 04:49:15;;;;;;;6.65;3.17;;;;;;;7.50;100.00;100230.59;10458803;28;20124;-75
2024/04/02 04:54:15;;;;;;;12.23;2.60;;;;;;;7.45;100.00;100239.28;10458909;28;20060;-74
2024/04/02 04:59:16;;;;;;;1.92;1.83;;;;;;;7.44;100.00;100243.84;10441620;28;20511;-74
2024/04/02 05:04:16;;;;;;;6.38;2.47;;;;;;;7.60;100.00;100253.50;10458488;28;20053;-72
2024/04/02 05:09:17;;;;;;;2.45;2.25;;;;;;;7.58;100.00;100254.72;10458710;28;20361;-73
2024/04/02 05:14:17;;;;;;;12.05;3.83;;;;;;;7.75;100.00;100264.19;10459807;28;20036;-72
2024/04/02 05:19:17;;;;;;;9.63;2.80;;;;;;;7.90;100.00;100253.31;10459286;28;20076;-76
2024/04/02 05:24:18;;;;;;;4.18;2.22;;;;;;;7.92;100.00;100257.50;10459030;28;20075;-73
2024/04/02 05:29:18;;;;;;;3.55;3.25;;;;;;;7.84;100.00;100262.19;10455853;28;20120;-73
2024/04/02 05:34:19;;;;;;;2.90;2.65;;;;;;;7.89;100.00;100262.47;10456810;28;20483;-73
2024/04/02 05:39:19;;;;;;;3.83;3.28;;;;;;;7.90;100.00;100272.19;10454584;28;20052;-74
2024/04/02 05:44:20;;;;;;;3.15;2.90;;;;;;;8.01;100.00;100276.22;10455908;28;20070;-74
2024/04/02 05:49:20;;;;;;;8.80;3.30;;;;;;;8.29;100.00;100279.72;10455791;28;20036;-73
2024/04/02 05:54:21;;;;;;;3.03;2.80;;;;;;;8.40;100.00;100264.91;10455717;28;20595;-73
2024/04/02 05:59:21;;;;;;;4.35;1.95;;;;;;;8.64;100.00;100285.16;10438327;28;20060;-73
2024/04/02 06:04:21;;;;;;;13.02;2.90;;;;;;;8.96;100.00;100291.72;10455009;28;20117;-73
2024/04/02 06:09:22;;;;;;;7.82;2.05;;;;;;;9.07;100.00;100285.75;10453757;28;20037;-74
2024/04/02 06:14:22;;;;;;;6.57;3.35;;;;;;;8.92;100.00;100290.47;10453546;28;20117;-73
2024/04/02 06:19:23;;;;;;;5.03;2.83;;;;;;;9.03;100.00;100298.00;10456896;28;20053;-74
2024/04/02 06:24:24;;;;;;;7.20;2.70;;;;;;;9.13;100.00;100299.50;10455045;28;20373;-74
2024/04/02 06:29:24;;;;;;;8.52;2.45;;;;;;;9.18;100.00;100311.34;10453631;28;20116;-73
2024/04/02 06:34:25;;;;;;;4.15;2.78;;;;;;;9.34;100.00;100301.22;10453620;28;20417;-74
2024/04/02 06:39:25;;;;;;;9.93;3.28;;;;;;;9.42;100.00;100301.88;10437053;28;20028;-74
2024/04/02 06:44:26;;;;;;;4.90;2.05;;;;;;;9.63;100.00;100305.41;10443151;28;20104;-74
2024/04/02 06:49:26;;;;;;;6.95;2.08;;;;;;;9.71;100.00;100310.63;10462483;28;20033;-74
2024/04/02 06:54:27;;;;;;;6.53;2.97;;;;;;;9.87;100.00;100318.34;10460921;28;20115;-74
2024/04/02 06:59:27;;;;;;;12.43;3.92;;;;;;;9.78;100.00;100319.59;10460942;28;20094;-73
2024/04/02 07:04:28;;;;;;;8.60;3.05;;;;;;;10.12;100.00;100315.03;10462675;28;20078;-74
2024/04/02 07:09:30;;;;;;;3.00;2.72;;;;;;;10.72;100.00;100323.91;10460551;28;20115;-74
2024/04/02 07:14:30;;;;;;;5.45;3.05;;;;;;;10.68;100.00;100325.38;10459603;28;20033;-74
2024/04/02 07:19:31;;;;;;;15.38;3.92;;;;;;;10.83;100.00;100315.13;10459862;28;20147;-74
2024/04/02 07:24:31;;;;;;;2.60;2.40;;;;;;;10.81;100.00;100333.44;10461392;28;20037;-73
2024/04/02 07:29:31;;;;;;;6.45;2.63;;;;;;;10.56;100.00;100332.47;10461413;28;20056;-74
2024/04/02 07:34:32;;;;;;;9.60;3.53;;;;;;;10.75;100.00;100337.00;10459587;28;20112;-73
2024/04/02 07:39:33;;;;;;;6.63;3.72;;;;;;;10.71;100.00;100333.91;10459169;28;20053;-74
2024/04/02 07:44:34;;;;;;;8.30;2.53;;;;;;;11.45;100.00;100352.59;10459163;28;20037;-73
2024/04/02 07:49:34;;;;;;;16.63;4.75;;;;;;;11.78;100.00;100355.94;10460201;28;20123;-74
2024/04/02 07:54:35;;;;;;;6.75;2.47;;;;;;;12.14;100.00;100351.75;10457845;28;20035;-74
2024/04/02 07:59:35;;;;;;;6.10;3.42;;;;;;;11.67;100.00;100364.75;10458843;28;20098;-74
2024/04/02 08:04:35;;;;;;;10.20;3.92;;;;;;;12.21;100.00;100355.22;10459498;28;20025;-74
2024/04/02 08:09:36;;;;;;;11.75;2.75;;;;;;;13.48;100.00;100354.72;10458147;28;20439;-74
2024/04/02 08:14:36;;;;;;;2.33;2.05;;;;;;;14.74;100.00;100350.00;10459445;28;20035;-74
2024/04/02 08:19:37;;;;;;;7.78;3.85;;;;;;;13.76;100.00;100359.56;10457509;28;20131;-74
2024/04/02 08:24:38;;;;;;;7.60;2.60;;;;;;;13.18;100.00;100371.00;10441777;28;20167;-74
2024/04/02 08:29:39;;;;;;;8.95;3.35;;;;;;;12.56;100.00;100371.00;10459660;28;20032;-74
2024/04/02 08:34:39;;;;;;;8.68;3.00;;;;;;;12.13;100.00;100373.69;10459309;28;20033;-74
2024/04/02 08:39:40;;;;;;;15.15;3.30;;;;;;;11.98;100.00;100384.84;10474783;28;20037;-73
2024/04/02 08:44:41;;;;;;;11.82;4.15;;;;;;;11.92;100.00;100391.97;10440594;28;20025;-74
2024/04/02 08:49:41;;;;;;;17.98;3.42;;;;;;;11.83;100.00;100401.38;10457645;28;20036;-74
2024/04/02 08:54:42;;;;;;;7.55;3.80;;;;;;;11.75;100.00;100394.34;10456276;28;20067;-74
2024/04/02 08:59:42;;;;;;;5.40;3.08;;;;;;;11.77;100.00;100407.69;10456345;28;20033;-74
2024/04/02 09:04:43;;;;;;;4.47;3.15;;;;;;;11.29;100.00;100411.66;10438522;28;20051;-75
2024/04/02 09:09:43;;;;;;;4.35;2.90;;;;;;;11.12;100.00;100407.78;10456510;28;20029;-73
2024/04/02 09:14:46;;;;;;;6.07;3.20;;;;;;;11.01;100.00;100409.28;10422275;28;20089;-74
2024/04/02 09:19:47;;;;;;;9.80;3.40;;;;;;;11.04;100.00;100413.41;10457721;28;20059;-73
2024/04/02 09:24:47;;;;;;;9.02;4.53;;;;;;;10.97;100.00;100423.44;10455802;28;20033;-74
2024/04/02 09:29:47;;;;;;;8.43;3.15;;;;;;;10.98;100.00;100427.84;10454462;28;20040;-74
2024/04/02 09:34:48;;;;;;;5.88;4.18;;;;;;;10.59;100.00;100424.09;10438128;28;20461;-72
2024/04/02 09:39:48;;;;;;;7.40;3.63;;;;;;;10.63;100.00;100428.91;10439260;28;20037;-73
2024/04/02 09:44:49;;;;;;;16.42;4.60;;;;;;;10.85;100.00;100418.69;10439456;28;20100;-73
2024/04/02 09:49:49;;;;;;;7.10;3.65;;;;;;;10.72;100.00;100424.13;10454775;28;20025;-73
2024/04/02 09:54:49;;;;;;;8.52;3.60;;;;;;;10.61;100.00;100424.75;10422480;28;20484;-73
2024/04/02 09:59:50;;;;;;;4.90;4.07;;;;;;;11.00;100.00;100426.56;10422245;28;20411;-73
2024/04/02 10:04:51;;;;;;;4.85;3.38;;;;;;;11.41;100.00;100425.38;10455313;28;20029;-74
2024/04/02 10:09:57;;;;;;;7.57;3.35;;;;;;;11.17;100.00;100421.53;10455460;28;20039;-74
2024/04/02 10:15:04;;;;;;;12.40;3.80;;;;;;;11.17;100.00;100421.53;10454805;28;20029;-73
2024/04/02 10:20:23;;;;;;;;;;;;;;;10.71;100.00;100415.13;10461576;28;20133;-73
2024/04/02 10:25:24;;;;;;;3.13;2.42;;;;;;;10.48;100.00;100431.81;10462610;28;19916;-74
2024/04/02 10:30:25;;;;;;;4.38;1.83;;;;;;;10.89;100.00;100416.38;10444666;28;20021;-74
2024/04/02 10:35:28;;;;;;;15.55;3.95;;;;;;;11.31;100.00;100427.72;10445532;28;20037;-74
2024/04/02 10:40:30;;;;;;;10.68;2.17;;;;;;;11.59;100.00;100425.53;10444425;28;20090;-74
2024/04/02 10:45:31;;;;;;;8.45;3.67;;;;;;;12.13;100.00;100422.53;10461451;28;20123;-74
2024/04/02 10:50:31;;;;;;;6.40;2.90;;;;;;;12.50;100.00;100428.94;10462362;28;20181;-74
2024/04/02 10:55:32;;;;;;;4.20;2.08;;;;;;;12.86;100.00;100411.91;10460679;28;20352;-74
2024/04/02 11:00:33;;;;;;;9.98;3.65;;;;;;;13.34;100.00;100415.78;10461218;28;20036;-74
2024/04/02 11:05:33;;;;;;;8.98;2.85;;;;;;;13.60;100.00;100422.78;10461597;28;20112;-74
2024/04/02 11:10:34;;;;;;;2.03;1.85;;;;;;;14.48;100.00;100426.72;10443597;28;20368;-74
2024/04/02 11:15:34;;;;;;;6.00;2.22;;;;;;;14.64;100.00;100420.59;10459702;28;20132;-74
2024/04/02 11:20:34;;;;;;;2.15;1.88;;;;;;;14.39;100.00;100420.81;10461890;28;20119;-74
2024/04/02 11:25:35;;;;;;;2.78;2.05;;;;;;;14.09;100.00;100420.84;10460972;28;20025;-74
2024/04/02 11:30:37;;;;;;;4.00;2.03;;;;;;;13.97;100.00;100423.50;10461846;28;20390;-74
2024/04/02 11:35:37;;;;;;;1.50;1.40;;;;;;;13.63;100.00;100428.59;10476122;28;20061;-74
2024/04/02 11:40:37;;;;;;;11.30;2.40;;;;;;;12.72;100.00;100437.50;10461184;28;20037;-73
2024/04/02 11:45:38;;;;;;;7.75;3.42;;;;;;;11.78;100.00;100444.63;10443551;28;20486;-71
2024/04/02 11:50:39;;;;;;;4.55;2.72;;;;;;;11.55;100.00;100454.13;10460888;28;20087;-71
2024/04/02 11:55:41;;;;;;;9.57;2.75;;;;;;;11.37;100.00;100449.38;10461143;28;20064;-71
2024/04/02 12:00:42;;;;;;;4.05;2.58;;;;;;;11.04;100.00;100437.78;10460000;28;20029;-71
2024/04/02 12:05:42;;;;;;;4.68;3.13;;;;;;;10.97;100.00;100445.09;10457621;28;20126;-70
2024/04/02 12:10:43;;;;;;;7.25;3.13;;;;;;;11.15;100.00;100448.00;10459370;28;20057;-70
2024/04/02 12:15:43;;;;;;;10.45;3.72;;;;;;;11.07;100.00;100449.06;10459709;28;20393;-71
2024/04/02 12:20:44;;;;;;;4.15;3.10;;;;;;;11.21;100.00;100444.44;10457734;28;20342;-70
2024/04/02 12:25:44;;;;;;;0.55;0.55;;;;;;;11.09;100.00;100443.41;10459523;28;20512;-70
2024/04/02 12:30:44;;;;;;;0.80;0.80;;;;;;;10.98;100.00;100436.78;10457509;28;20044;-71
2024/04/02 12:35:45;;;;;;;4.00;2.28;;;;;;;11.16;100.00;100439.63;10457567;28;20040;-71
2024/04/02 12:40:45;;;;;;;0.50;0.50;;;;;;;11.30;100.00;100440.44;10456244;28;20044;-71
2024/04/02 12:45:50;;;;;;;0.55;0.55;;;;;;;13.30;100.00;100441.75;10439934;28;20025;-72
2024/04/02 12:50:53;;;;;;;0.40;0.40;;;;;;;13.98;100.00;100446.16;10457706;28;20140;-72
2024/04/02 12:55:54;;;;;;;1.33;1.13;;;;;;;13.73;100.00;100439.75;10456742;28;20028;-74
2024/04/02 13:00:54;;;;;;;0.50;0.50;;;;;;;12.76;100.00;100452.31;10457902;28;20029;-73
2024/04/02 13:05:55;;;;;;;0.50;0.50;;;;;;;12.08;100.00;100445.72;10456361;28;20445;-74
2024/04/02 13:10:55;;;;;;;0.50;0.50;;;;;;;11.90;100.00;100455.66;10456816;28;20090;-75
2024/04/02 13:15:56;;;;;;;1.42;1.42;;;;;;;11.83;100.00;100464.63;10455311;28;20049;-76
2024/04/02 13:20:58;;;;;;;0.60;0.60;;;;;;;11.97;100.00;100468.16;10453298;28;20120;-76
2024/04/02 13:26:11;;;;;;;1.33;1.30;;;;;;;12.21;100.00;100463.81;10454862;28;20445;-76
2024/04/02 13:31:11;;;;;;;0.50;0.50;;;;;;;12.16;100.00;100474.50;10454834;28;20060;-77
2024/04/02 13:36:14;;;;;;;0.52;0.52;;;;;;;12.30;100.00;100467.94;10453519;28;20025;-76
2024/04/02 13:41:15;;;;;;;0.75;0.75;;;;;;;12.31;100.00;100480.44;10439506;28;20033;-76
2024/04/02 13:46:17;;;;;;;0.50;0.50;;;;;;;12.05;100.00;100477.91;10459852;28;20041;-76
2024/04/02 13:51:19;;;;;;;0.50;0.50;;;;;;;11.68;100.00;100490.34;10454495;28;20532;-76
2024/04/02 13:56:20;;;;;;;0.50;0.50;;;;;;;11.69;100.00;100492.03;10437422;28;20108;-76
2024/04/02 14:01:20;;;;;;;0.45;0.45;;;;;;;12.34;100.00;100484.59;10452672;28;20033;-76
2024/04/02 14:06:21;;;;;;;0.50;0.50;;;;;;;12.64;100.00;100501.13;10452968;28;20044;-76
2024/04/02 14:11:21;;;;;;;16.05;3.92;;;;;;;13.27;100.00;100483.81;10436128;28;20128;-76
2024/04/02 14:16:22;;;;;;;10.68;2.83;;;;;;;13.58;100.00;100485.56;10412217;28;1166121;-76
2024/04/02 14:21:22;;;;;;;12.23;3.55;;;;;;;13.45;100.00;100493.91;10453724;28;20052;-76
2024/04/02 14:26:26;;;;;;;21.13;4.03;;;;;;;13.17;100.00;100503.34;10454020;28;20103;-76
2024/04/02 14:31:28;;;;;;;3.10;2.22;;;;;;;13.02;100.00;100505.63;10438328;28;20029;-76
2024/04/02 14:36:30;;;;;;;7.43;2.92;;;;;;;12.99;100.00;100511.50;10438980;28;20128;-75
2024/04/02 14:41:30;;;;;;;6.80;3.05;;;;;;;13.04;100.00;100515.19;10455506;28;20037;-77
2024/04/02 14:46:32;;;;;;;13.15;5.07;;;;;;;13.22;100.00;100525.28;10455875;28;20052;-76
2024/04/02 14:51:33;;;;;;;16.05;3.15;;;;;;;13.13;100.00;100510.31;10437259;28;20029;-75
2024/04/02 14:56:33;;;;;;;8.30;3.90;;;;;;;13.19;100.00;100512.13;10455912;28;20033;-75
2024/04/02 15:01:33;;;;;;;12.50;4.00;;;;;;;13.16;100.00;100515.28;10454868;28;20070;-76
2024/04/02 15:06:34;;;;;;;11.82;3.50;;;;;;;13.29;100.00;100513.53;10460546;28;20112;-76
2024/04/02 15:11:34;;;;;;;5.50;2.35;;;;;;;13.23;100.00;100515.22;10461520;28;20072;-76
2024/04/02 15:16:35;;;;;;;15.07;3.28;;;;;;;13.09;100.00;100525.41;10461765;28;20080;-75
2024/04/02 15:21:36;;;;;;;15.80;3.70;;;;;;;12.98;100.00;100528.84;10461133;28;20037;-75
2024/04/02 15:26:37;;;;;;;3.30;2.15;;;;;;;12.65;100.00;100518.25;10458960;28;20032;-76
2024/04/02 15:31:37;;;;;;;8.15;3.78;;;;;;;12.37;100.00;100533.03;10458650;28;20032;-76
2024/04/02 15:36:38;;;;;;;11.75;3.13;;;;;;;12.43;100.00;100526.75;10459597;28;20112;-75
2024/04/02 15:41:38;;;;;;;10.80;2.88;;;;;;;12.63;100.00;100540.19;10458865;28;20101;-75
2024/04/02 15:46:39;;;;;;;21.83;3.55;;;;;;;12.93;100.00;100536.84;10458806;28;20381;-76
2024/04/02 15:51:39;;;;;;;11.60;3.53;;;;;;;12.64;100.00;100536.44;10461379;28;20082;-76
2024/04/02 15:56:40;;;;;;;10.05;3.78;;;;;;;12.54;100.00;100546.97;10460679;28;20115;-75
2024/04/02 16:01:40;;;;;;;7.35;2.75;;;;;;;12.46;100.00;100541.78;10459138;28;20112;-75
2024/04/02 16:06:41;;;;;;;17.13;4.00;;;;;;;12.50;100.00;100557.41;10458533;28;20055;-75
2024/04/02 16:11:41;;;;;;;8.23;2.92;;;;;;;12.55;100.00;100552.16;10460213;28;20041;-75
2024/04/02 16:16:41;;;;;;;11.40;4.05;;;;;;;12.34;100.00;100553.31;10426614;28;20126;-75
2024/04/02 16:21:44;;;;;;;9.13;2.55;;;;;;;12.18;100.00;100556.53;10456879;28;20045;-75
2024/04/02 16:26:45;;;;;;;7.22;3.10;;;;;;;12.19;100.00;100551.94;10440751;28;20025;-75
2024/04/02 16:31:46;;;;;;;11.82;3.67;;;;;;;12.24;100.00;100563.00;10457099;28;20032;-75
2024/04/02 16:36:46;;;;;;;9.88;4.65;;;;;;;12.14;100.00;100558.03;10457993;28;20079;-76
2024/04/02 16:41:47;;;;;;;6.18;3.75;;;;;;;12.02;100.00;100571.44;10458370;28;20037;-75
2024/04/02 16:46:47;;;;;;;10.32;3.17;;;;;;;12.03;100.00;100583.97;10457295;28;20043;-75
2024/04/02 16:51:48;;;;;;;5.47;2.90;;;;;;;12.19;100.00;100585.38;10441414;28;20060;-75
2024/04/02 16:56:50;;;;;;;15.70;3.72;;;;;;;12.24;100.00;100587.44;10457520;28;20055;-75
2024/04/02 17:01:50;;;;;;;7.85;4.65;;;;;;;12.06;100.00;100599.84;10459394;28;20082;-75
2024/04/02 17:06:51;;;;;;;17.98;4.70;;;;;;;11.86;100.00;100601.75;10459244;28;20029;-75
2024/04/02 17:11:51;;;;;;;15.43;4.90;;;;;;;11.63;100.00;100604.91;10440232;28;20040;-75
2024/04/02 17:16:52;;;;;;;16.35;4.95;;;;;;;11.67;100.00;100613.47;10438122;28;20121;-75
2024/04/02 17:21:52;;;;;;;34.45;7.78;;;;;;;11.63;100.00;100621.19;10455375;28;20063;-75
2024/04/02 17:26:53;;;;;;;14.00;6.30;;;;;;;11.43;100.00;100614.97;10454719;28;20465;-75
2024/04/02 17:31:53;;;;;;;15.90;6.70;;;;;;;11.27;100.00;100622.50;10455649;28;20108;-75
2024/04/02 17:36:54;;;;;;;17.00;4.65;;;;;;;11.14;100.00;100608.94;10454760;28;20036;-75
2024/04/02 17:41:59;;;;;;;15.45;6.65;;;;;;;10.91;100.00;100621.03;10456075;28;20109;-75
2024/04/02 17:47:00;;;;;;;21.40;5.70;;;;;;;10.69;100.00;100623.06;10455144;28;20317;-75
2024/04/02 17:52:08;;;;;;;15.82;4.88;;;;;;;10.56;100.00;100633.00;10456497;28;20032;-75
2024/04/02 17:57:08;;;;;;;19.80;6.13;;;;;;;10.44;100.00;100628.19;10454982;28;20064;-75
2024/04/02 18:02:08;;;;;;;36.00;6.63;;;;;;;10.41;100.00;100625.88;10455683;28;20029;-75
2024/04/02 18:07:10;;;;;;;12.20;5.88;;;;;;;10.29;100.00;100627.50;10454685;28;20039;-75
2024/04/02 18:12:10;;;;;;;16.60;5.45;;;;;;;10.27;100.00;100631.44;10439845;28;20043;-75
2024/04/02 18:17:13;;;;;;;27.42;5.65;;;;;;;10.26;100.00;100622.50;10456444;28;20187;-76
2024/04/02 18:22:14;;;;;;;11.60;5.50;;;;;;;10.24;100.00;100632.66;10455607;28;20112;-75
2024/04/02 18:27:14;;;;;;;31.30;6.05;;;;;;;10.23;100.00;100636.41;10437483;28;20456;-75
2024/04/02 18:32:15;;;;;;;15.73;4.03;;;;;;;10.28;100.00;100636.69;10470375;28;20433;-75
2024/04/02 18:37:16;;;;;;;17.42;6.15;;;;;;;10.35;100.00;100631.28;10455422;28;20029;-75
2024/04/02 18:42:16;;;;;;;22.70;5.00;;;;;;;10.39;100.00;100633.38;10463805;28;20105;-77
2024/04/02 18:47:17;;;;;;;13.80;5.18;;;;;;;10.32;100.00;100635.22;10429486;28;20025;-75
2024/04/02 18:52:17;;;;;;;23.65;5.93;;;;;;;10.33;100.00;100636.06;10444512;28;20340;-75
2024/04/02 18:57:18;;;;;;;12.57;4.35;;;;;;;10.25;100.00;100639.75;10446167;28;20029;-75
2024/04/02 19:02:20;;;;;;;28.38;6.57;;;;;;;10.20;100.00;100648.47;10461388;28;20033;-75
2024/04/02 19:07:23;;;;;;;14.32;4.43;;;;;;;10.15;100.00;100648.25;10477208;28;20365;-77
2024/04/02 19:12:24;;;;;;;9.80;4.63;;;;;;;10.13;100.00;100650.31;10461410;28;20044;-75
2024/04/02 19:17:24;;;;;;;13.93;4.35;;;;;;;10.14;100.00;100643.03;10477738;28;20053;-76
2024/04/02 19:22:25;;;;;;;11.30;4.43;;;;;;;10.12;100.00;100647.81;10461242;28;20059;-76
2024/04/02 19:27:25;;;;;;;18.88;3.47;;;;;;;10.15;100.00;100655.53;10461382;28;20035;-76
2024/04/02 19:32:26;;;;;;;6.13;4.05;;;;;;;10.13;100.00;100652.19;10458694;28;20041;-75
2024/04/02 19:37:26;;;;;;;22.52;4.82;;;;;;;10.11;100.00;100656.94;10460830;28;20337;-75
2024/04/02 19:42:27;;;;;;;20.13;3.97;;;;;;;10.15;100.00;100648.25;10459304;28;20037;-75
2024/04/02 19:47:27;;;;;;;22.23;4.32;;;;;;;10.22;100.00;100646.41;10458922;28;20424;-75
2024/04/02 19:52:28;;;;;;;17.23;4.80;;;;;;;10.23;100.00;100641.81;10459987;28;20155;-75
2024/04/02 19:57:28;;;;;;;13.77;4.97;;;;;;;10.26;100.00;100636.03;10442049;28;20048;-76
2024/04/02 20:02:29;;;;;;;10.23;4.60;;;;;;;10.26;100.00;100636.03;10458508;28;20037;-75
2024/04/02 20:07:29;;;;;;;9.63;4.40;;;;;;;10.27;100.00;100639.56;10457625;28;20100;-75
2024/04/02 20:12:30;;;;;;;9.93;4.50;;;;;;;10.40;100.00;100636.91;10459404;28;20067;-75
2024/04/02 20:17:30;;;;;;;11.63;3.45;;;;;;;10.47;100.00;100641.31;10459610;28;20091;-77
2024/04/02 20:22:31;;;;;;;15.50;3.95;;;;;;;10.63;100.00;100633.88;10442347;28;20348;-76
2024/04/02 20:27:35;;;;;;;22.60;4.38;;;;;;;10.66;100.00;100628.88;10458952;28;20116;-76
2024/04/02 20:32:35;;;;;;;14.10;4.28;;;;;;;10.69;100.00;100623.06;10457702;28;20412;-76
2024/04/02 20:37:36;;;;;;;20.40;5.15;;;;;;;10.78;100.00;100625.56;10440412;28;20090;-77
2024/04/02 20:42:36;;;;;;;15.02;3.60;;;;;;;10.86;100.00;100623.50;10457760;28;20040;-76
2024/04/02 20:47:37;;;;;;;8.07;2.33;;;;;;;10.90;100.00;100629.34;10441146;28;20028;-76
2024/04/02 20:52:37;;;;;;;6.88;3.97;;;;;;;10.99;100.00;100629.97;10456997;28;20033;-76
2024/04/02 20:57:38;;;;;;;21.15;6.35;;;;;;;10.96;100.00;100633.94;10457917;28;20490;-75
2024/04/02 21:02:38;;;;;;;9.45;4.28;;;;;;;10.96;100.00;100638.53;10458320;28;20353;-76
2024/04/02 21:07:39;;;;;;;11.75;4.07;;;;;;;10.94;100.00;100636.88;10457266;28;20410;-76
2024/04/02 21:12:40;;;;;;;7.72;4.63;;;;;;;10.90;100.00;100632.88;10471828;28;20037;-75
2024/04/02 21:17:41;;;;;;;9.13;3.67;;;;;;;10.88;100.00;100628.69;10472385;28;20053;-75
2024/04/02 21:22:41;;;;;;;12.70;3.92;;;;;;;10.88;100.00;100632.25;10455532;28;20115;-75
2024/04/02 21:27:42;;;;;;;16.25;3.97;;;;;;;10.91;100.00;100629.16;10457357;28;20372;-75
2024/04/02 21:32:42;;;;;;;25.20;6.15;;;;;;;10.92;100.00;100633.50;10422337;28;20045;-75
2024/04/02 21:37:43;;;;;;;18.92;7.35;;;;;;;10.90;100.00;100637.47;10455292;28;20032;-76
2024/04/02 21:42:43;;;;;;;9.30;4.05;;;;;;;10.88;100.00;100647.66;10421824;28;20029;-75
2024/04/02 21:47:57;;;;;;;20.70;4.97;;;;;;;10.86;100.00;100634.34;10438036;28;20443;-76
2024/04/02 21:52:58;;;;;;;5.82;4.07;;;;;;;10.83;100.00;100636.63;10456408;28;20373;-75
2024/04/02 21:57:58;;;;;;;14.30;3.15;;;;;;;10.79;100.00;100632.66;10454200;28;20029;-76
2024/04/02 22:02:59;;;;;;;6.88;3.20;;;;;;;10.55;100.00;100643.00;10471271;28;20064;-76
2024/04/02 22:07:59;;;;;;;19.13;4.75;;;;;;;10.50;100.00;100639.22;10438307;28;20115;-75
2024/04/02 22:13:00;;;;;;;17.90;3.75;;;;;;;10.47;100.00;100640.50;10457024;28;20376;-75
2024/04/02 22:18:00;;;;;;;8.52;3.80;;;;;;;10.34;100.00;100638.56;10464161;28;20145;-75
2024/04/02 22:23:01;;;;;;;11.15;3.35;;;;;;;10.31;100.00;100635.44;10464878;28;20048;-74
2024/04/02 22:28:03;;;;;;;22.15;3.72;;;;;;;10.25;100.00;100627.06;10463340;28;20162;-73
2024/04/02 22:33:04;;;;;;;13.20;4.25;;;;;;;10.10;100.00;100628.22;10463666;28;20033;-74
2024/04/02 22:38:04;;;;;;;0.30;0.30;;;;;;;10.02;100.00;100635.50;10463373;28;20103;-75
2024/04/02 22:43:05;;;;;;;0.32;0.32;;;;;;;9.91;100.00;100629.78;10461907;28;20029;-74
2024/04/02 22:48:05;;;;;;;1.15;1.15;;;;;;;9.89;100.00;100634.56;10444875;28;20025;-73